createdAt,value
2019-05-30T00:01:00.007Z,8.17
2019-05-30T00:03:29.476Z,6.40
2019-05-30T00:05:58.783Z,6.73
2019-05-30T00:08:28.121Z,5.87
2019-05-30T00:10:58.519Z,9.17
2019-05-30T00:13:28.438Z,4.33
2019-05-30T00:15:58.762Z,7.37
2019-05-30T00:18:28.382Z,6.73
2019-05-30T00:20:58.756Z,6.73
2019-05-30T00:23:28.411Z,5.87
2019-05-30T00:25:59.065Z,10.10
2019-05-30T00:28:28.706Z,5.20
2019-05-30T00:30:58.329Z,8.67
2019-05-30T00:33:27.985Z,7.17
2019-05-30T00:35:57.661Z,6.87
2019-05-30T00:38:27.203Z,5.97
2019-05-30T00:40:57.779Z,5.33
2019-05-30T00:43:27.435Z,9.03
2019-05-30T00:45:57.898Z,5.00
2019-05-30T00:48:27.587Z,5.33
2019-05-30T00:50:58.247Z,7.57
2019-05-30T00:53:28.015Z,5.33
2019-05-30T00:55:58.582Z,5.57
2019-05-30T00:58:28.282Z,5.50
2019-05-30T01:00:59.039Z,7.03
2019-05-30T01:03:28.991Z,5.93
2019-05-30T01:05:58.703Z,4.37
2019-05-30T01:08:28.490Z,6.03
2019-05-30T01:10:58.892Z,6.27
2019-05-30T01:13:28.398Z,10.20
2019-05-30T01:15:58.859Z,7.03
2019-05-30T01:18:28.479Z,8.83
2019-05-30T01:20:59.046Z,5.53
2019-05-30T01:23:28.640Z,6.27
2019-05-30T01:25:59.227Z,7.33
2019-05-30T01:28:28.809Z,6.67
2019-05-30T01:31:02.954Z,6.93
2019-05-30T01:33:29.827Z,7.10
2019-05-30T01:35:59.682Z,8.63
2019-05-30T01:38:29.239Z,8.20
2019-05-30T01:40:59.643Z,6.20
2019-05-30T01:43:29.453Z,6.40
2019-05-30T01:46:00.089Z,7.03
2019-05-30T01:48:29.537Z,6.20
2019-05-30T01:51:00.225Z,8.20
2019-05-30T01:53:29.850Z,5.47
2019-05-30T01:56:00.545Z,5.33
2019-05-30T01:58:30.157Z,5.80
2019-05-30T02:01:14.387Z,9.13
2019-05-30T02:03:30.703Z,6.93
2019-05-30T02:06:01.038Z,6.87
2019-05-30T02:08:30.460Z,7.53
2019-05-30T02:11:01.194Z,5.57
2019-05-30T02:13:30.725Z,5.30
2019-05-30T02:16:01.472Z,5.90
2019-05-30T02:18:31.015Z,7.73
2019-05-30T02:21:02.047Z,5.87
2019-05-30T02:23:31.577Z,8.13
2019-05-30T02:26:02.217Z,7.53
2019-05-30T02:28:31.905Z,6.83
2019-05-30T02:31:02.990Z,5.43
2019-05-30T02:33:32.685Z,7.87
2019-05-30T02:36:04.020Z,6.47
2019-05-30T02:38:33.096Z,4.23
2019-05-30T02:41:03.361Z,5.20
2019-05-30T02:43:34.059Z,5.33
2019-05-30T02:46:04.130Z,7.60
2019-05-30T02:48:34.603Z,7.17
2019-05-30T02:51:05.395Z,5.40
2019-05-30T02:53:35.175Z,4.57
2019-05-30T02:56:05.994Z,5.27
2019-05-30T02:58:35.671Z,5.97
2019-05-30T03:01:07.042Z,7.20
2019-05-30T03:03:36.217Z,4.63
2019-05-30T03:06:06.863Z,5.77
2019-05-30T03:08:36.848Z,7.70
2019-05-30T03:11:09.934Z,6.67
2019-05-30T03:13:37.827Z,6.20
2019-05-30T03:16:08.883Z,7.60
2019-05-30T03:18:38.424Z,7.53
2019-05-30T03:21:10.256Z,5.70
2019-05-30T03:23:38.946Z,4.17
2019-05-30T03:26:10.833Z,3.10
2019-05-30T03:28:39.316Z,4.80
2019-05-30T03:31:21.195Z,5.00
2019-05-30T03:33:42.846Z,2.87
2019-05-30T03:36:24.160Z,7.17
2019-05-30T03:38:42.961Z,4.93
2019-05-30T03:41:12.429Z,4.50
2019-05-30T03:43:41.864Z,4.00
2019-05-30T03:46:15.813Z,5.17
2019-05-30T03:48:47.461Z,7.37
2019-05-30T03:51:18.460Z,3.93
2019-05-30T03:53:48.231Z,6.40
2019-05-30T03:56:21.945Z,8.70
2019-05-30T03:59:05.640Z,7.03
2019-05-30T04:01:43.363Z,8.13
2019-05-30T04:04:17.617Z,7.23
2019-05-30T04:06:51.432Z,4.03
2019-05-30T04:09:25.292Z,5.83
2019-05-30T04:12:04.987Z,6.93
2019-05-30T04:14:38.234Z,2.73
2019-05-30T04:17:09.946Z,4.53
2019-05-30T04:19:38.873Z,2.40
2019-05-30T04:22:09.317Z,5.20
2019-05-30T04:24:39.242Z,7.00
2019-05-30T04:27:09.951Z,4.70
2019-05-30T04:29:40.044Z,3.37
2019-05-30T04:32:10.357Z,5.43
2019-05-30T04:34:40.047Z,5.67
2019-05-30T04:37:10.646Z,8.53
2019-05-30T04:39:40.238Z,4.70
2019-05-30T04:42:11.189Z,5.67
2019-05-30T04:44:40.845Z,5.53
2019-05-30T04:47:11.953Z,4.47
2019-05-30T04:49:41.416Z,5.20
2019-05-30T04:52:15.354Z,3.13
2019-05-30T04:54:42.068Z,4.07
2019-05-30T04:57:12.705Z,5.53
2019-05-30T04:59:42.241Z,4.67
2019-05-30T05:02:13.525Z,3.00
2019-05-30T05:04:42.740Z,4.90
2019-05-30T05:07:13.513Z,5.87
2019-05-30T05:09:43.279Z,4.17
2019-05-30T05:12:13.894Z,4.70
2019-05-30T05:14:43.459Z,6.03
2019-05-30T05:17:12.862Z,5.17
2019-05-30T05:19:42.243Z,4.10
2019-05-30T05:22:12.792Z,6.20
2019-05-30T05:24:42.207Z,7.73
2019-05-30T05:27:11.519Z,4.53
2019-05-30T05:29:40.809Z,6.30
2019-05-30T05:32:10.518Z,6.97
2019-05-30T05:34:39.995Z,3.70
2019-05-30T05:37:09.329Z,4.90
2019-05-30T05:39:38.746Z,3.93
2019-05-30T05:42:08.079Z,6.13
2019-05-30T05:44:37.500Z,5.80
2019-05-30T05:47:06.953Z,5.17
2019-05-30T05:49:36.647Z,4.23
2019-05-30T05:52:05.964Z,3.23
2019-05-30T05:54:35.357Z,5.10
2019-05-30T05:57:04.859Z,7.77
2019-05-30T05:59:34.424Z,4.53
2019-05-30T06:02:03.934Z,7.70
2019-05-30T06:04:33.225Z,5.67
2019-05-30T06:07:02.812Z,4.83
2019-05-30T06:09:32.321Z,4.00
2019-05-30T06:12:01.939Z,7.27
2019-05-30T06:14:31.314Z,9.47
2019-05-30T06:17:00.798Z,4.60
2019-05-30T06:19:45.513Z,4.73
2019-05-30T06:22:01.847Z,5.00
2019-05-30T06:24:31.241Z,3.80
2019-05-30T06:27:00.691Z,3.17
2019-05-30T06:29:30.323Z,2.50
2019-05-30T06:31:59.751Z,3.33
2019-05-30T06:34:38.540Z,7.43
2019-05-30T06:37:00.186Z,5.57
2019-05-30T06:39:29.767Z,7.07
2019-05-30T06:41:59.219Z,5.33
2019-05-30T06:44:28.526Z,5.83
2019-05-30T06:46:57.755Z,7.40
2019-05-30T06:53:08.410Z,3.97
2019-05-30T06:55:37.800Z,4.50
2019-05-30T06:58:07.155Z,4.80
2019-05-30T07:00:36.514Z,4.17
2019-05-30T07:03:06.298Z,4.73
2019-05-30T07:05:36.430Z,5.17
2019-05-30T07:08:06.252Z,4.70
2019-05-30T07:10:35.880Z,4.97
2019-05-30T07:13:05.432Z,3.37
2019-05-30T07:15:34.829Z,6.77
2019-05-30T07:18:04.177Z,5.73
2019-05-30T07:20:33.846Z,3.03
2019-05-30T07:23:03.375Z,5.67
2019-05-30T07:25:34.010Z,3.77
2019-05-30T07:28:03.578Z,4.67
2019-05-30T07:30:34.125Z,5.50
2019-05-30T07:33:06.634Z,3.33
2019-05-30T07:35:36.092Z,4.60
2019-05-30T07:38:05.679Z,6.03
2019-05-30T07:40:35.073Z,4.67
2019-05-30T07:43:04.636Z,4.23
2019-05-30T07:45:35.093Z,1.77
2019-05-30T07:48:04.610Z,6.00
2019-05-30T07:50:34.577Z,4.77
2019-05-30T07:53:04.141Z,2.60
2019-05-30T07:55:33.566Z,6.17
2019-05-30T07:58:03.030Z,3.80
2019-05-30T08:00:33.565Z,5.50
2019-05-30T08:03:03.142Z,3.67
2019-05-30T08:05:32.702Z,3.63
2019-05-30T08:08:02.166Z,3.43
2019-05-30T08:10:31.989Z,4.57
2019-05-30T08:13:01.590Z,6.43
2019-05-30T08:15:31.396Z,4.67
2019-05-30T08:18:00.981Z,4.83
2019-05-30T08:20:31.635Z,3.13
2019-05-30T08:23:01.222Z,5.10
2019-05-30T08:25:30.573Z,4.80
2019-05-30T08:28:00.184Z,2.93
2019-05-30T08:30:30.341Z,3.33
2019-05-30T08:32:59.785Z,6.33
2019-05-30T08:35:39.088Z,3.70
2019-05-30T08:38:00.230Z,4.63
2019-05-30T08:40:31.061Z,4.47
2019-05-30T08:43:00.528Z,3.73
2019-05-30T08:45:29.844Z,6.23
2019-05-30T08:47:59.258Z,4.10
2019-05-30T08:50:30.233Z,5.73
2019-05-30T08:52:59.786Z,3.57
2019-05-30T08:55:30.188Z,3.27
2019-05-30T08:57:59.790Z,5.73
2019-05-30T09:00:29.393Z,4.50
2019-05-30T09:02:59.791Z,5.33
2019-05-30T09:05:29.171Z,3.70
2019-05-30T09:07:58.598Z,3.33
2019-05-30T09:10:27.934Z,5.47
2019-05-30T09:12:57.409Z,4.47
2019-05-30T09:15:26.906Z,3.47
2019-05-30T09:17:56.338Z,4.80
2019-05-30T09:20:26.204Z,8.23
2019-05-30T09:22:55.664Z,4.57
2019-05-30T09:25:25.394Z,5.13
2019-05-30T09:27:54.855Z,5.57
2019-05-30T09:30:25.043Z,6.37
2019-05-30T09:32:54.653Z,4.53
2019-05-30T09:35:24.053Z,4.73
2019-05-30T09:37:53.618Z,3.93
2019-05-30T09:40:23.251Z,5.60
2019-05-30T09:42:52.578Z,3.57
2019-05-30T09:45:23.922Z,4.53
2019-05-30T09:47:53.351Z,4.73
2019-05-30T09:50:22.657Z,5.30
2019-05-30T09:52:52.040Z,4.97
2019-05-30T09:55:21.970Z,4.47
2019-05-30T09:57:51.684Z,3.33
2019-05-30T10:00:23.435Z,4.93
2019-05-30T10:02:52.835Z,2.97
2019-05-30T10:05:24.867Z,5.37
2019-05-30T10:07:54.712Z,4.43
2019-05-30T10:10:24.236Z,7.07
2019-05-30T10:12:53.630Z,4.07
2019-05-30T10:15:23.462Z,7.23
2019-05-30T10:17:54.345Z,4.30
2019-05-30T10:20:24.450Z,7.13
2019-05-30T10:22:54.075Z,4.50
2019-05-30T10:25:23.841Z,4.27
2019-05-30T10:27:54.800Z,2.90
2019-05-30T10:30:25.015Z,3.23
2019-05-30T10:32:55.833Z,3.27
2019-05-30T10:35:25.470Z,3.30
2019-05-30T10:37:54.927Z,8.90
2019-05-30T10:40:24.431Z,3.23
2019-05-30T10:42:55.115Z,5.50
2019-05-30T10:45:25.334Z,3.23
2019-05-30T10:47:54.710Z,3.87
2019-05-30T10:50:25.137Z,5.50
2019-05-30T10:52:55.636Z,3.17
2019-05-30T10:55:25.717Z,2.83
2019-05-30T10:57:58.065Z,2.60
2019-05-30T11:00:45.754Z,4.37
2019-05-30T11:03:16.038Z,4.50
2019-05-30T11:05:49.182Z,3.07
2019-05-30T11:08:21.661Z,2.70
2019-05-30T11:10:51.091Z,3.70
2019-05-30T11:13:20.548Z,4.07
2019-05-30T11:15:51.493Z,2.87
2019-05-30T11:18:21.269Z,3.93
2019-05-30T11:20:52.262Z,3.07
2019-05-30T11:23:21.812Z,4.00
2019-05-30T11:25:51.091Z,2.80
2019-05-30T11:28:20.365Z,3.40
2019-05-30T11:30:50.598Z,4.43
2019-05-30T11:33:20.048Z,3.87
2019-05-30T11:35:49.432Z,4.97
2019-05-30T11:38:20.707Z,3.23
2019-05-30T11:40:51.243Z,6.17
2019-05-30T11:43:20.725Z,4.40
2019-05-30T11:45:51.568Z,3.53
2019-05-30T11:48:21.181Z,4.73
2019-05-30T11:50:51.958Z,3.27
2019-05-30T11:53:21.426Z,4.17
2019-05-30T11:55:52.170Z,4.67
2019-05-30T11:58:21.720Z,2.67
2019-05-30T12:00:52.952Z,4.50
2019-05-30T12:03:22.317Z,4.90
2019-05-30T12:05:52.524Z,2.30
2019-05-30T12:08:21.978Z,3.40
2019-05-30T12:10:51.290Z,4.00
2019-05-30T12:13:20.631Z,3.87
2019-05-30T12:15:51.258Z,3.47
2019-05-30T12:18:20.865Z,3.50
2019-05-30T12:20:51.600Z,4.40
2019-05-30T12:23:21.242Z,3.27
2019-05-30T12:25:51.869Z,2.87
2019-05-30T12:28:21.405Z,3.83
2019-05-30T12:30:56.723Z,5.60
2019-05-30T12:33:21.870Z,5.73
2019-05-30T12:35:52.393Z,3.03
2019-05-30T12:38:21.810Z,3.53
2019-05-30T12:40:51.048Z,3.50
2019-05-30T12:43:20.501Z,5.90
2019-05-30T12:45:49.913Z,7.37
2019-05-30T12:48:19.306Z,5.00
2019-05-30T12:50:48.729Z,3.03
2019-05-30T12:53:20.244Z,3.53
2019-05-30T12:55:49.567Z,4.33
2019-05-30T12:58:19.285Z,3.03
2019-05-30T13:00:49.054Z,3.40
2019-05-30T13:03:18.314Z,4.57
2019-05-30T13:05:47.653Z,5.07
2019-05-30T13:08:21.646Z,5.93
2019-05-30T13:10:48.250Z,2.87
2019-05-30T13:13:17.794Z,3.10
2019-05-30T13:15:47.097Z,3.30
2019-05-30T13:18:16.938Z,4.17
2019-05-30T13:20:46.278Z,5.00
2019-05-30T13:23:15.660Z,5.57
2019-05-30T13:25:45.066Z,6.43
2019-05-30T13:28:14.399Z,4.37
2019-05-30T13:30:43.831Z,3.53
2019-05-30T13:33:13.185Z,3.30
2019-05-30T13:35:42.629Z,5.20
2019-05-30T13:38:25.713Z,5.60
2019-05-30T13:40:42.980Z,4.07
2019-05-30T13:43:12.421Z,3.27
2019-05-30T13:45:41.929Z,2.87
2019-05-30T13:48:13.026Z,3.73
2019-05-30T13:50:42.446Z,2.73
2019-05-30T13:53:11.898Z,2.80
2019-05-30T13:55:41.295Z,4.77
2019-05-30T13:58:10.703Z,6.47
2019-05-30T14:00:40.109Z,3.00
2019-05-30T14:03:10.315Z,4.70
2019-05-30T14:05:40.042Z,2.37
2019-05-30T14:08:16.465Z,4.17
2019-05-30T14:10:42.643Z,5.13
2019-05-30T14:13:12.186Z,5.73
2019-05-30T14:15:41.713Z,4.93
2019-05-30T14:18:11.303Z,2.80
2019-05-30T14:20:40.591Z,3.73
2019-05-30T14:23:09.947Z,4.87
2019-05-30T14:25:39.384Z,4.40
2019-05-30T14:28:09.858Z,4.07
2019-05-30T14:30:39.371Z,3.93
2019-05-30T14:33:10.070Z,5.73
2019-05-30T14:35:41.511Z,4.87
2019-05-30T14:38:11.032Z,3.43
2019-05-30T14:40:40.493Z,4.70
2019-05-30T14:43:09.838Z,5.63
2019-05-30T14:45:39.251Z,8.57
2019-05-30T14:48:08.720Z,5.47
2019-05-30T14:50:39.866Z,4.80
2019-05-30T14:53:09.196Z,5.37
2019-05-30T14:55:38.602Z,3.87
2019-05-30T14:58:09.122Z,5.40
2019-05-30T15:00:38.654Z,4.17
2019-05-30T15:03:12.426Z,6.90
2019-05-30T15:05:39.209Z,4.00
2019-05-30T15:08:08.665Z,5.10
2019-05-30T15:10:38.383Z,4.27
2019-05-30T15:13:07.744Z,6.73
2019-05-30T15:15:37.339Z,4.77
2019-05-30T15:18:07.110Z,4.50
2019-05-30T15:20:36.582Z,6.63
2019-05-30T15:23:06.018Z,7.80
2019-05-30T15:25:35.601Z,6.63
2019-05-30T15:28:06.019Z,6.03
2019-05-30T15:30:35.416Z,7.37
2019-05-30T15:33:06.223Z,8.53
2019-05-30T15:35:35.738Z,8.17
2019-05-30T15:38:05.135Z,7.90
2019-05-30T15:40:34.471Z,7.17
2019-05-30T15:43:03.906Z,7.47
2019-05-30T15:45:33.303Z,7.63
2019-05-30T15:48:02.832Z,6.87
2019-05-30T15:50:33.573Z,9.53
2019-05-30T15:53:02.915Z,6.57
2019-05-30T15:55:32.453Z,9.70
2019-05-30T15:58:01.802Z,7.27
2019-05-30T16:00:31.420Z,7.73
2019-05-30T16:03:00.807Z,6.87
2019-05-30T16:05:30.355Z,6.73
2019-05-30T16:07:59.866Z,10.33
2019-05-30T16:10:29.451Z,9.43
2019-05-30T16:12:58.748Z,8.67
2019-05-30T16:15:28.226Z,6.13
2019-05-30T16:17:57.721Z,7.53
2019-05-30T16:20:27.131Z,9.53
2019-05-30T16:22:56.775Z,8.47
2019-05-30T16:25:26.131Z,8.77
2019-05-30T16:27:56.341Z,10.00
2019-05-30T16:30:27.141Z,12.60
2019-05-30T16:32:56.769Z,6.90
2019-05-30T16:35:26.479Z,9.77
2019-05-30T16:37:55.862Z,9.10
2019-05-30T16:40:26.597Z,12.53
2019-05-30T16:42:56.269Z,10.37
2019-05-30T16:45:26.752Z,8.73
2019-05-30T16:47:56.437Z,8.80
2019-05-30T16:50:27.033Z,9.03
2019-05-30T16:52:56.773Z,8.80
2019-05-30T16:55:26.165Z,10.53
2019-05-30T16:57:56.836Z,11.23
2019-05-30T17:00:26.793Z,9.97
2019-05-30T17:02:56.366Z,12.07
2019-05-30T17:05:28.619Z,10.13
2019-05-30T17:08:00.017Z,8.93
2019-05-30T17:10:32.848Z,10.90
2019-05-30T17:13:00.450Z,11.03
2019-05-30T17:15:29.795Z,8.90
2019-05-30T17:17:59.052Z,10.83
2019-05-30T17:20:28.685Z,10.90
2019-05-30T17:22:58.396Z,11.37
2019-05-30T17:25:28.069Z,9.93
2019-05-30T17:27:59.302Z,11.00
2019-05-30T17:30:28.730Z,11.70
2019-05-30T17:32:58.160Z,12.63
2019-05-30T17:35:28.531Z,11.40
2019-05-30T17:37:57.949Z,12.10
2019-05-30T17:40:41.092Z,14.07
2019-05-30T17:42:59.487Z,15.73
2019-05-30T17:45:29.483Z,16.00
2019-05-30T17:48:15.283Z,12.03
2019-05-30T17:50:30.260Z,11.60
2019-05-30T17:52:59.741Z,10.27
2019-05-30T17:55:30.127Z,11.70
2019-05-30T17:58:01.482Z,11.57
2019-05-30T18:00:31.022Z,11.27
2019-05-30T18:03:00.627Z,10.43
2019-05-30T18:05:30.958Z,13.60
2019-05-30T18:08:00.381Z,12.50
2019-05-30T18:10:31.081Z,13.40
2019-05-30T18:13:00.801Z,11.07
2019-05-30T18:15:31.981Z,11.40
2019-05-30T18:18:01.350Z,14.83
2019-05-30T18:20:31.639Z,18.37
2019-05-30T18:23:01.225Z,15.63
2019-05-30T18:25:31.738Z,16.77
2019-05-30T18:28:01.311Z,14.63
2019-05-30T18:30:42.541Z,16.03
2019-05-30T18:33:12.242Z,15.17
2019-05-30T18:35:41.855Z,15.60
2019-05-30T18:38:11.522Z,16.83
2019-05-30T18:40:41.056Z,16.47
2019-05-30T18:43:10.711Z,15.63
2019-05-30T18:45:42.847Z,18.97
2019-05-30T18:48:12.646Z,16.73
2019-05-30T18:50:42.247Z,18.27
2019-05-30T18:53:11.787Z,19.23
2019-05-30T18:55:41.238Z,17.37
2019-05-30T18:58:10.839Z,24.20
2019-05-30T19:00:40.155Z,19.83
2019-05-30T19:03:09.733Z,19.13
2019-05-30T19:05:41.961Z,22.20
2019-05-30T19:08:11.296Z,19.07
2019-05-30T19:10:41.258Z,17.33
2019-05-30T19:13:10.824Z,19.17
2019-05-30T19:15:40.242Z,19.20
2019-05-30T19:18:09.775Z,19.90
2019-05-30T19:20:39.468Z,19.23
2019-05-30T19:23:08.925Z,17.43
2019-05-30T19:25:38.627Z,20.33
2019-05-30T19:28:08.007Z,18.70
2019-05-30T19:30:41.018Z,20.53
2019-05-30T19:33:08.619Z,19.10
2019-05-30T19:35:39.925Z,19.20
2019-05-30T19:38:09.353Z,22.73
2019-05-30T19:40:38.925Z,22.00
2019-05-30T19:43:08.250Z,21.47
2019-05-30T19:45:38.302Z,21.63
2019-05-30T19:48:07.811Z,16.00
2019-05-30T19:50:37.407Z,21.97
2019-05-30T19:53:06.934Z,18.23
2019-05-30T19:55:37.397Z,16.10
2019-05-30T19:58:07.411Z,19.00
2019-05-30T20:00:56.771Z,16.13
2019-05-30T20:03:08.051Z,16.07
2019-05-30T20:05:38.774Z,20.73
2019-05-30T20:08:08.429Z,18.47
2019-05-30T20:10:39.110Z,17.90
2019-05-30T20:13:08.684Z,17.43
2019-05-30T20:15:39.439Z,19.30
2019-05-30T20:18:09.050Z,18.70
2019-05-30T20:20:54.028Z,22.70
2019-05-30T20:23:09.796Z,22.50
2019-05-30T20:25:42.451Z,18.20
2019-05-30T20:28:10.301Z,21.33
2019-05-30T20:30:39.698Z,26.27
2019-05-30T20:33:09.447Z,21.73
2019-05-30T20:35:40.049Z,22.90
2019-05-30T20:38:10.384Z,20.00
2019-05-30T20:40:40.835Z,24.97
2019-05-30T20:43:10.328Z,22.23
2019-05-30T20:45:45.607Z,26.97
2019-05-30T20:48:11.104Z,26.97
2019-05-30T20:50:41.166Z,23.83
2019-05-30T20:53:10.689Z,23.60
2019-05-30T20:55:40.488Z,26.70
2019-05-30T20:58:09.989Z,23.03
2019-05-30T21:00:43.827Z,25.87
2019-05-30T21:03:13.528Z,21.03
2019-05-30T21:05:44.437Z,23.47
2019-05-30T21:08:15.814Z,22.47
2019-05-30T21:10:47.435Z,23.73
2019-05-30T21:13:18.354Z,26.37
2019-05-30T21:15:48.531Z,24.20
2019-05-30T21:18:19.453Z,22.20
2019-05-30T21:20:49.082Z,19.10
2019-05-30T21:23:18.582Z,20.90
2019-05-30T21:25:48.104Z,22.37
2019-05-30T21:28:17.690Z,20.00
2019-05-30T21:30:47.506Z,17.97
2019-05-30T21:33:17.494Z,22.30
2019-05-30T21:35:48.048Z,20.47
2019-05-30T21:38:17.608Z,20.77
2019-05-30T21:40:48.374Z,19.07
2019-05-30T21:43:18.184Z,18.73
2019-05-30T21:45:48.709Z,20.13
2019-05-30T21:48:18.474Z,20.40
2019-05-30T21:50:49.116Z,21.53
2019-05-30T21:53:21.340Z,21.93
2019-05-30T21:55:50.764Z,21.27
2019-05-30T21:58:20.120Z,24.77
2019-05-30T22:01:32.765Z,22.80
2019-05-30T22:04:02.677Z,20.70
2019-05-30T22:06:32.057Z,20.40
2019-05-30T22:09:03.503Z,24.00
2019-05-30T22:11:32.589Z,20.07
2019-05-30T22:14:02.066Z,20.57
2019-05-30T22:16:31.303Z,19.37
2019-05-30T22:19:00.825Z,23.83
2019-05-30T22:21:30.386Z,23.57
2019-05-30T22:23:59.803Z,22.37
2019-05-30T22:26:29.214Z,25.10
2019-05-30T22:29:00.732Z,24.23
2019-05-30T22:31:30.151Z,20.30
2019-05-30T22:33:59.662Z,24.77
2019-05-30T22:36:29.122Z,21.57
2019-05-30T22:38:58.438Z,22.57
2019-05-30T22:41:28.008Z,22.87
2019-05-30T22:43:57.417Z,21.23
2019-05-30T22:46:26.778Z,19.93
2019-05-30T22:48:56.912Z,21.00
2019-05-30T22:51:27.598Z,23.50
2019-05-30T22:53:57.365Z,24.90
2019-05-30T22:56:27.195Z,22.83
2019-05-30T22:58:56.612Z,20.77
2019-05-30T23:01:26.030Z,22.97
2019-05-30T23:03:55.477Z,21.50
2019-05-30T23:06:24.900Z,23.73
2019-05-30T23:08:54.846Z,22.33
2019-05-30T23:11:24.615Z,23.77
2019-05-30T23:13:54.051Z,23.77
2019-05-30T23:16:23.646Z,24.27
2019-05-30T23:18:52.985Z,24.30
2019-05-30T23:21:22.330Z,29.43
2019-05-30T23:23:51.926Z,27.83
2019-05-30T23:26:22.311Z,28.77
2019-05-30T23:28:51.865Z,29.73
2019-05-30T23:31:21.420Z,31.43
2019-05-30T23:33:52.278Z,26.10
2019-05-30T23:36:22.196Z,29.43
2019-05-30T23:38:52.514Z,32.80
2019-05-30T23:41:22.131Z,29.07
2019-05-30T23:44:03.187Z,27.53
2019-05-30T23:46:22.824Z,27.80
2019-05-30T23:51:20.769Z,31.93
2019-05-30T23:53:50.214Z,30.73
2019-05-30T23:56:19.646Z,30.60
2019-05-30T23:58:50.422Z,27.97
